sensor_id;sensor_type;location;lat;lon;timestamp;pressure;altitude;pressure_sealevel;temperature;humidity
64200;BME280;50516;52.272;5.136;2023-05-25T00:01:30;102651.25;;;13.67;75.42
64200;BME280;50516;52.272;5.136;2023-05-25T00:03:58;102661.72;;;13.65;75.42
64200;BME280;50516;52.272;5.136;2023-05-25T00:06:24;102652.84;;;13.63;75.25
64200;BME280;50516;52.272;5.136;2023-05-25T00:08:50;102661.41;;;13.61;75.41
64200;BME280;50516;52.272;5.136;2023-05-25T00:11:19;102672.69;;;13.60;75.34
64200;BME280;50516;52.272;5.136;2023-05-25T00:13:47;102663.59;;;13.47;75.68
64200;BME280;50516;52.272;5.136;2023-05-25T00:16:13;102667.28;;;13.53;75.38
64200;BME280;50516;52.272;5.136;2023-05-25T00:18:38;102666.72;;;13.51;75.18
64200;BME280;50516;52.272;5.136;2023-05-25T00:21:03;102667.81;;;13.50;75.20
64200;BME280;50516;52.272;5.136;2023-05-25T00:23:32;102660.50;;;13.44;75.34
64200;BME280;50516;52.272;5.136;2023-05-25T00:25:57;102664.94;;;13.45;75.02
64200;BME280;50516;52.272;5.136;2023-05-25T00:28:23;102660.50;;;13.44;75.05
64200;BME280;50516;52.272;5.136;2023-05-25T00:30:48;102665.41;;;13.42;75.12
64200;BME280;50516;52.272;5.136;2023-05-25T00:33:14;102662.56;;;13.37;75.26
64200;BME280;50516;52.272;5.136;2023-05-25T00:35:41;102668.56;;;13.33;75.37
64200;BME280;50516;52.272;5.136;2023-05-25T00:38:12;102666.69;;;13.34;75.17
64200;BME280;50516;52.272;5.136;2023-05-25T00:40:38;102665.69;;;13.28;75.30
64200;BME280;50516;52.272;5.136;2023-05-25T00:43:05;102668.59;;;13.22;75.58
64200;BME280;50516;52.272;5.136;2023-05-25T00:45:32;102666.56;;;13.17;75.59
64200;BME280;50516;52.272;5.136;2023-05-25T00:47:58;102670.44;;;13.16;75.52
64200;BME280;50516;52.272;5.136;2023-05-25T00:50:36;102671.16;;;13.11;75.78
64200;BME280;50516;52.272;5.136;2023-05-25T00:53:03;102660.97;;;13.12;75.42
64200;BME280;50516;52.272;5.136;2023-05-25T00:55:28;102669.25;;;13.12;75.60
64200;BME280;50516;52.272;5.136;2023-05-25T00:57:58;102672.97;;;13.06;75.49
64200;BME280;50516;52.272;5.136;2023-05-25T01:00:25;102679.31;;;13.06;75.55
64200;BME280;50516;52.272;5.136;2023-05-25T01:02:51;102674.56;;;13.02;75.77
64200;BME280;50516;52.272;5.136;2023-05-25T01:05:20;102689.31;;;12.95;75.88
64200;BME280;50516;52.272;5.136;2023-05-25T01:07:50;102671.81;;;12.90;76.08
64200;BME280;50516;52.272;5.136;2023-05-25T01:10:18;102683.56;;;12.85;75.75
64200;BME280;50516;52.272;5.136;2023-05-25T01:12:47;102688.47;;;12.83;75.74
64200;BME280;50516;52.272;5.136;2023-05-25T01:15:13;102675.19;;;12.80;75.60
64200;BME280;50516;52.272;5.136;2023-05-25T01:17:39;102681.19;;;12.77;75.66
64200;BME280;50516;52.272;5.136;2023-05-25T01:20:05;102678.91;;;12.74;75.69
64200;BME280;50516;52.272;5.136;2023-05-25T01:22:50;102680.47;;;12.70;76.16
64200;BME280;50516;52.272;5.136;2023-05-25T01:25:21;102696.28;;;12.63;76.28
64200;BME280;50516;52.272;5.136;2023-05-25T01:27:56;102688.50;;;12.59;76.18
64200;BME280;50516;52.272;5.136;2023-05-25T01:30:25;102690.91;;;12.56;76.08
64200;BME280;50516;52.272;5.136;2023-05-25T01:32:52;102688.38;;;12.54;75.79
64200;BME280;50516;52.272;5.136;2023-05-25T01:35:18;102688.28;;;12.49;75.90
64200;BME280;50516;52.272;5.136;2023-05-25T01:37:45;102687.69;;;12.47;75.71
64200;BME280;50516;52.272;5.136;2023-05-25T01:40:12;102678.84;;;12.45;75.84
64200;BME280;50516;52.272;5.136;2023-05-25T01:42:37;102682.31;;;12.40;76.07
64200;BME280;50516;52.272;5.136;2023-05-25T01:45:03;102699.66;;;12.41;75.56
64200;BME280;50516;52.272;5.136;2023-05-25T01:50:52;102699.66;;;12.41;75.83
64200;BME280;50516;52.272;5.136;2023-05-25T01:53:22;102703.38;;;12.35;76.11
64200;BME280;50516;52.272;5.136;2023-05-25T01:56:00;102699.03;;;12.27;75.90
64200;BME280;50516;52.272;5.136;2023-05-25T01:58:27;102696.28;;;12.27;75.83
64200;BME280;50516;52.272;5.136;2023-05-25T02:00:58;102699.28;;;12.26;76.07
64200;BME280;50516;52.272;5.136;2023-05-25T02:03:23;102698.69;;;12.23;76.29
64200;BME280;50516;52.272;5.136;2023-05-25T02:05:49;102698.69;;;12.23;76.08
64200;BME280;50516;52.272;5.136;2023-05-25T02:08:14;102699.16;;;12.20;75.95
64200;BME280;50516;52.272;5.136;2023-05-25T02:10:40;102707.44;;;12.20;76.12
64200;BME280;50516;52.272;5.136;2023-05-25T02:13:05;102709.13;;;12.21;75.69
64200;BME280;50516;52.272;5.136;2023-05-25T02:15:31;102704.06;;;12.18;75.94
64200;BME280;50516;52.272;5.136;2023-05-25T02:17:57;102704.19;;;12.12;75.91
64200;BME280;50516;52.272;5.136;2023-05-25T02:20:24;102713.75;;;12.09;76.20
64200;BME280;50516;52.272;5.136;2023-05-25T02:22:50;102716.28;;;12.11;76.33
64200;BME280;50516;52.272;5.136;2023-05-25T02:25:15;102707.06;;;12.05;76.15
64200;BME280;50516;52.272;5.136;2023-05-25T02:27:41;102714.47;;;12.04;76.31
64200;BME280;50516;52.272;5.136;2023-05-25T02:30:07;102716.38;;;12.04;76.26
64200;BME280;50516;52.272;5.136;2023-05-25T02:32:32;102715.19;;;12.00;76.25
64200;BME280;50516;52.272;5.136;2023-05-25T02:34:58;102714.56;;;11.98;76.27
64200;BME280;50516;52.272;5.136;2023-05-25T02:37:23;102715.19;;;12.00;76.67
64200;BME280;50516;52.272;5.136;2023-05-25T02:39:49;102717.94;;;12.00;76.37
64200;BME280;50516;52.272;5.136;2023-05-25T02:42:14;102724.28;;;12.00;76.78
64200;BME280;50516;52.272;5.136;2023-05-25T02:44:39;102716.50;;;11.97;76.53
64200;BME280;50516;52.272;5.136;2023-05-25T02:47:06;102722.06;;;11.91;76.47
64200;BME280;50516;52.272;5.136;2023-05-25T02:49:32;102715.34;;;11.86;76.43
64200;BME280;50516;52.272;5.136;2023-05-25T02:51:58;102720.84;;;11.86;76.76
64200;BME280;50516;52.272;5.136;2023-05-25T02:54:23;102719.44;;;11.84;76.88
64200;BME280;50516;52.272;5.136;2023-05-25T02:56:49;102727.28;;;11.80;76.87
64200;BME280;50516;52.272;5.136;2023-05-25T02:59:14;102734.50;;;11.81;76.63
64200;BME280;50516;52.272;5.136;2023-05-25T03:01:39;102736.63;;;11.79;76.70
64200;BME280;50516;52.272;5.136;2023-05-25T03:04:06;102733.75;;;11.74;76.84
64200;BME280;50516;52.272;5.136;2023-05-25T03:06:31;102736.97;;;11.71;76.79
64200;BME280;50516;52.272;5.136;2023-05-25T03:08:57;102730.84;;;11.69;77.16
64200;BME280;50516;52.272;5.136;2023-05-25T03:11:22;102728.09;;;11.69;76.88
64200;BME280;50516;52.272;5.136;2023-05-25T03:13:48;102729.78;;;11.70;77.11
64200;BME280;50516;52.272;5.136;2023-05-25T03:16:14;102724.50;;;11.68;76.75
64200;BME280;50516;52.272;5.136;2023-05-25T03:18:39;102725.22;;;11.64;77.22
64200;BME280;50516;52.272;5.136;2023-05-25T03:21:04;102734.31;;;11.64;77.37
64200;BME280;50516;52.272;5.136;2023-05-25T03:23:30;102716.94;;;11.64;77.18
64200;BME280;50516;52.272;5.136;2023-05-25T03:25:55;102720.78;;;11.63;77.08
64200;BME280;50516;52.272;5.136;2023-05-25T03:28:20;102719.56;;;11.59;76.95
64200;BME280;50516;52.272;5.136;2023-05-25T03:30:46;102714.53;;;11.56;76.82
64200;BME280;50516;52.272;5.136;2023-05-25T03:33:11;102723.38;;;11.58;76.96
64200;BME280;50516;52.272;5.136;2023-05-25T03:35:38;102725.06;;;11.59;76.93
64200;BME280;50516;52.272;5.136;2023-05-25T03:38:04;102734.88;;;11.55;76.71
64200;BME280;50516;52.272;5.136;2023-05-25T03:40:29;102725.16;;;11.52;76.75
64200;BME280;50516;52.272;5.136;2023-05-25T03:42:54;102734.72;;;11.49;76.79
64200;BME280;50516;52.272;5.136;2023-05-25T03:45:19;102735.13;;;11.53;76.90
64200;BME280;50516;52.272;5.136;2023-05-25T03:47:45;102728.16;;;11.50;76.60
64200;BME280;50516;52.272;5.136;2023-05-25T03:50:10;102729.44;;;11.48;76.66
64200;BME280;50516;52.272;5.136;2023-05-25T03:52:36;102739.84;;;11.46;76.89
64200;BME280;50516;52.272;5.136;2023-05-25T03:55:01;102742.38;;;11.47;76.82
64200;BME280;50516;52.272;5.136;2023-05-25T03:57:28;102737.47;;;11.49;76.68
64200;BME280;50516;52.272;5.136;2023-05-25T03:59:53;102738.91;;;11.52;76.83
64200;BME280;50516;52.272;5.136;2023-05-25T04:02:19;102741.91;;;11.50;76.63
64200;BME280;50516;52.272;5.136;2023-05-25T04:04:44;102739.06;;;11.57;77.11
64200;BME280;50516;52.272;5.136;2023-05-25T04:07:10;102744.09;;;11.60;77.25
64200;BME280;50516;52.272;5.136;2023-05-25T04:09:35;102749.03;;;11.70;77.15
64200;BME280;50516;52.272;5.136;2023-05-25T04:12:00;102740.09;;;11.75;77.26
64200;BME280;50516;52.272;5.136;2023-05-25T04:14:26;102752.47;;;11.84;76.96
64200;BME280;50516;52.272;5.136;2023-05-25T04:16:52;102744.09;;;11.91;76.75
64200;BME280;50516;52.272;5.136;2023-05-25T04:19:17;102762.94;;;11.94;76.35
64200;BME280;50516;52.272;5.136;2023-05-25T04:21:42;102771.31;;;11.99;76.55
64200;BME280;50516;52.272;5.136;2023-05-25T04:24:08;102754.00;;;12.10;76.02
64200;BME280;50516;52.272;5.136;2023-05-25T04:26:33;102755.69;;;12.23;75.91
64200;BME280;50516;52.272;5.136;2023-05-25T04:28:59;102759.06;;;12.37;75.63
64200;BME280;50516;52.272;5.136;2023-05-25T04:31:26;102757.50;;;12.53;75.21
64200;BME280;50516;52.272;5.136;2023-05-25T04:33:52;102761.00;;;12.72;75.30
64200;BME280;50516;52.272;5.136;2023-05-25T04:36:17;102764.59;;;12.84;75.43
64200;BME280;50516;52.272;5.136;2023-05-25T04:38:42;102764.34;;;12.97;74.98
64200;BME280;50516;52.272;5.136;2023-05-25T04:41:13;102770.06;;;13.08;74.92
64200;BME280;50516;52.272;5.136;2023-05-25T04:43:38;102765.16;;;13.22;74.68
64200;BME280;50516;52.272;5.136;2023-05-25T04:46:04;102768.75;;;13.34;74.04
64200;BME280;50516;52.272;5.136;2023-05-25T04:48:31;102772.66;;;13.50;73.79
64200;BME280;50516;52.272;5.136;2023-05-25T04:50:58;102773.25;;;13.52;73.87
64200;BME280;50516;52.272;5.136;2023-05-25T04:53:27;102777.31;;;13.61;73.54
64200;BME280;50516;52.272;5.136;2023-05-25T04:55:53;102779.44;;;13.71;73.39
64200;BME280;50516;52.272;5.136;2023-05-25T04:58:19;102783.69;;;13.79;73.43
64200;BME280;50516;52.272;5.136;2023-05-25T05:00:45;102780.66;;;13.92;73.29
64200;BME280;50516;52.272;5.136;2023-05-25T05:03:11;102785.38;;;14.09;72.96
64200;BME280;50516;52.272;5.136;2023-05-25T05:05:37;102786.38;;;14.19;72.71
64200;BME280;50516;52.272;5.136;2023-05-25T05:08:02;102800.13;;;14.31;72.73
64200;BME280;50516;52.272;5.136;2023-05-25T05:10:28;102789.31;;;14.47;72.07
64200;BME280;50516;52.272;5.136;2023-05-25T05:12:53;102781.16;;;14.52;72.59
64200;BME280;50516;52.272;5.136;2023-05-25T05:15:18;102782.75;;;14.65;71.87
64200;BME280;50516;52.272;5.136;2023-05-25T05:17:44;102783.31;;;14.84;71.74
64200;BME280;50516;52.272;5.136;2023-05-25T05:20:09;102778.50;;;14.96;71.50
64200;BME280;50516;52.272;5.136;2023-05-25T05:22:36;102789.91;;;15.00;71.04
64200;BME280;50516;52.272;5.136;2023-05-25T05:25:01;102792.53;;;15.11;70.57
64200;BME280;50516;52.272;5.136;2023-05-25T05:27:27;102793.59;;;15.05;71.62
64200;BME280;50516;52.272;5.136;2023-05-25T05:29:52;102795.97;;;15.19;71.51
64200;BME280;50516;52.272;5.136;2023-05-25T05:32:17;102798.31;;;15.27;71.31
64200;BME280;50516;52.272;5.136;2023-05-25T05:34:43;102804.41;;;15.29;70.63
64200;BME280;50516;52.272;5.136;2023-05-25T05:37:08;102805.97;;;15.42;70.25
64200;BME280;50516;52.272;5.136;2023-05-25T05:39:33;102797.91;;;15.40;69.57
64200;BME280;50516;52.272;5.136;2023-05-25T05:41:59;102807.50;;;15.55;70.42
64200;BME280;50516;52.272;5.136;2023-05-25T05:44:24;102814.53;;;15.62;69.75
64200;BME280;50516;52.272;5.136;2023-05-25T05:46:50;102815.63;;;15.83;69.23
64200;BME280;50516;52.272;5.136;2023-05-25T05:49:15;102817.66;;;15.93;68.12
64200;BME280;50516;52.272;5.136;2023-05-25T05:51:40;102825.69;;;15.90;68.90
64200;BME280;50516;52.272;5.136;2023-05-25T05:54:05;102829.59;;;15.94;67.49
64200;BME280;50516;52.272;5.136;2023-05-25T05:56:31;102832.53;;;16.09;68.29
64200;BME280;50516;52.272;5.136;2023-05-25T05:58:56;102835.31;;;16.09;67.50
64200;BME280;50516;52.272;5.136;2023-05-25T06:01:22;102843.25;;;16.00;67.31
64200;BME280;50516;52.272;5.136;2023-05-25T06:03:47;102847.00;;;16.16;67.72
64200;BME280;50516;52.272;5.136;2023-05-25T06:06:13;102840.69;;;16.21;67.12
64200;BME280;50516;52.272;5.136;2023-05-25T06:08:38;102845.44;;;16.25;67.84
64200;BME280;50516;52.272;5.136;2023-05-25T06:11:07;102845.25;;;16.37;67.19
64200;BME280;50516;52.272;5.136;2023-05-25T06:13:32;102837.75;;;16.33;66.63
64200;BME280;50516;52.272;5.136;2023-05-25T06:15:57;102849.41;;;16.35;66.92
64200;BME280;50516;52.272;5.136;2023-05-25T06:18:23;102845.97;;;16.55;66.78
64200;BME280;50516;52.272;5.136;2023-05-25T06:20:48;102842.38;;;16.54;66.25
64200;BME280;50516;52.272;5.136;2023-05-25T06:23:13;102842.91;;;16.51;66.78
64200;BME280;50516;52.272;5.136;2023-05-25T06:25:39;102841.16;;;16.77;66.53
64200;BME280;50516;52.272;5.136;2023-05-25T06:28:04;102844.66;;;16.95;66.19
64200;BME280;50516;52.272;5.136;2023-05-25T06:30:30;102851.22;;;16.84;66.32
64200;BME280;50516;52.272;5.136;2023-05-25T06:32:56;102846.13;;;17.08;65.58
64200;BME280;50516;52.272;5.136;2023-05-25T06:35:21;102844.59;;;17.32;65.78
64200;BME280;50516;52.272;5.136;2023-05-25T06:37:47;102842.66;;;16.85;65.90
64200;BME280;50516;52.272;5.136;2023-05-25T06:40:14;102847.50;;;16.73;66.75
64200;BME280;50516;52.272;5.136;2023-05-25T06:42:40;102856.28;;;16.59;66.43
64200;BME280;50516;52.272;5.136;2023-05-25T06:45:06;102863.75;;;16.54;67.14
64200;BME280;50516;52.272;5.136;2023-05-25T06:47:32;102860.59;;;16.77;67.46
64200;BME280;50516;52.272;5.136;2023-05-25T06:49:58;102864.47;;;16.76;66.08
64200;BME280;50516;52.272;5.136;2023-05-25T06:52:23;102855.41;;;16.54;66.55
64200;BME280;50516;52.272;5.136;2023-05-25T06:54:48;102867.56;;;16.80;66.56
64200;BME280;50516;52.272;5.136;2023-05-25T06:57:14;102864.78;;;17.12;65.42
64200;BME280;50516;52.272;5.136;2023-05-25T06:59:39;102867.53;;;16.75;66.11
64200;BME280;50516;52.272;5.136;2023-05-25T07:02:05;102865.09;;;17.21;64.76
64200;BME280;50516;52.272;5.136;2023-05-25T07:04:30;102865.69;;;17.28;63.58
64200;BME280;50516;52.272;5.136;2023-05-25T07:06:57;102875.25;;;17.48;61.29
64200;BME280;50516;52.272;5.136;2023-05-25T07:09:22;102883.44;;;17.22;62.15
64200;BME280;50516;52.272;5.136;2023-05-25T07:11:47;102882.38;;;17.33;63.09
64200;BME280;50516;52.272;5.136;2023-05-25T07:14:13;102885.06;;;17.18;63.33
64200;BME280;50516;52.272;5.136;2023-05-25T07:16:38;102893.06;;;17.09;62.80
64200;BME280;50516;52.272;5.136;2023-05-25T07:19:03;102881.06;;;16.71;62.50
64200;BME280;50516;52.272;5.136;2023-05-25T07:21:31;102884.16;;;16.75;63.69
64200;BME280;50516;52.272;5.136;2023-05-25T07:23:57;102872.88;;;17.24;62.48
64200;BME280;50516;52.272;5.136;2023-05-25T07:26:23;102875.69;;;17.29;62.25
64200;BME280;50516;52.272;5.136;2023-05-25T07:28:50;102887.06;;;16.90;63.37
64200;BME280;50516;52.272;5.136;2023-05-25T07:31:15;102884.41;;;16.68;64.49
64200;BME280;50516;52.272;5.136;2023-05-25T07:33:41;102896.78;;;16.60;65.40
64200;BME280;50516;52.272;5.136;2023-05-25T07:36:07;102900.31;;;16.51;64.95
64200;BME280;50516;52.272;5.136;2023-05-25T07:38:32;102916.00;;;15.91;65.34
64200;BME280;50516;52.272;5.136;2023-05-25T07:40:57;102907.03;;;16.05;65.72
64200;BME280;50516;52.272;5.136;2023-05-25T07:43:23;102902.69;;;16.42;65.05
64200;BME280;50516;52.272;5.136;2023-05-25T07:45:48;102908.31;;;16.47;64.39
64200;BME280;50516;52.272;5.136;2023-05-25T07:48:14;102915.72;;;16.69;63.96
64200;BME280;50516;52.272;5.136;2023-05-25T07:50:39;102913.44;;;16.60;65.02
64200;BME280;50516;52.272;5.136;2023-05-25T07:53:04;102921.28;;;16.41;64.19
64200;BME280;50516;52.272;5.136;2023-05-25T07:55:30;102915.56;;;16.26;63.58
64200;BME280;50516;52.272;5.136;2023-05-25T07:57:55;102920.28;;;16.25;63.02
64200;BME280;50516;52.272;5.136;2023-05-25T08:00:20;102920.03;;;16.27;63.14
64200;BME280;50516;52.272;5.136;2023-05-25T08:02:46;102917.50;;;16.25;62.87
64200;BME280;50516;52.272;5.136;2023-05-25T08:05:11;102925.53;;;17.09;61.31
64200;BME280;50516;52.272;5.136;2023-05-25T08:07:37;102918.44;;;17.23;60.27
64200;BME280;50516;52.272;5.136;2023-05-25T08:10:04;102925.09;;;17.27;60.58
64200;BME280;50516;52.272;5.136;2023-05-25T08:12:31;102922.44;;;17.43;60.46
64200;BME280;50516;52.272;5.136;2023-05-25T08:14:56;102932.59;;;17.27;59.93
64200;BME280;50516;52.272;5.136;2023-05-25T08:17:21;102934.47;;;17.16;60.48
64200;BME280;50516;52.272;5.136;2023-05-25T08:19:47;102946.28;;;17.01;61.20
64200;BME280;50516;52.272;5.136;2023-05-25T08:22:12;102943.31;;;17.13;61.33
64200;BME280;50516;52.272;5.136;2023-05-25T08:24:37;102932.50;;;17.54;60.61
64200;BME280;50516;52.272;5.136;2023-05-25T08:27:03;102937.00;;;17.65;60.07
64200;BME280;50516;52.272;5.136;2023-05-25T08:29:28;102934.16;;;18.03;59.05
64200;BME280;50516;52.272;5.136;2023-05-25T08:31:55;102941.66;;;17.55;60.12
64200;BME280;50516;52.272;5.136;2023-05-25T08:34:20;102960.44;;;17.85;59.51
64200;BME280;50516;52.272;5.136;2023-05-25T08:36:45;102943.50;;;17.81;59.76
64200;BME280;50516;52.272;5.136;2023-05-25T08:39:11;102950.47;;;17.89;59.02
64200;BME280;50516;52.272;5.136;2023-05-25T08:41:41;102938.13;;;18.33;58.44
64200;BME280;50516;52.272;5.136;2023-05-25T08:44:07;102956.56;;;18.65;57.88
64200;BME280;50516;52.272;5.136;2023-05-25T08:46:33;102947.31;;;18.28;57.69
64200;BME280;50516;52.272;5.136;2023-05-25T08:49:09;102948.00;;;18.87;56.60
64200;BME280;50516;52.272;5.136;2023-05-25T08:51:51;102950.75;;;19.02;57.17
64200;BME280;50516;52.272;5.136;2023-05-25T08:54:19;102947.44;;;19.10;57.20
64200;BME280;50516;52.272;5.136;2023-05-25T08:56:54;102943.50;;;19.16;55.84
64200;BME280;50516;52.272;5.136;2023-05-25T09:02:21;102946.84;;;19.13;56.35
64200;BME280;50516;52.272;5.136;2023-05-25T09:04:49;102948.00;;;18.87;54.74
64200;BME280;50516;52.272;5.136;2023-05-25T09:07:15;102942.69;;;18.85;55.89
64200;BME280;50516;52.272;5.136;2023-05-25T09:09:40;102943.81;;;18.84;56.28
64200;BME280;50516;52.272;5.136;2023-05-25T09:12:07;102951.88;;;19.06;55.93
64200;BME280;50516;52.272;5.136;2023-05-25T09:14:33;102952.41;;;18.67;57.00
64200;BME280;50516;52.272;5.136;2023-05-25T09:16:59;102950.16;;;18.74;57.46
64200;BME280;50516;52.272;5.136;2023-05-25T09:19:25;102945.63;;;18.27;57.87
64200;BME280;50516;52.272;5.136;2023-05-25T09:21:50;102947.34;;;18.43;58.85
64200;BME280;50516;52.272;5.136;2023-05-25T09:24:17;102950.38;;;18.37;58.37
64200;BME280;50516;52.272;5.136;2023-05-25T09:26:43;102947.59;;;18.27;58.87
64200;BME280;50516;52.272;5.136;2023-05-25T09:29:12;102950.38;;;18.27;57.65
64200;BME280;50516;52.272;5.136;2023-05-25T09:31:38;102946.34;;;17.97;57.75
64200;BME280;50516;52.272;5.136;2023-05-25T09:34:10;102946.41;;;18.12;58.38
64200;BME280;50516;52.272;5.136;2023-05-25T09:36:35;102945.00;;;18.10;57.37
64200;BME280;50516;52.272;5.136;2023-05-25T09:39:07;102940.00;;;18.06;57.71
64200;BME280;50516;52.272;5.136;2023-05-25T09:41:32;102949.81;;;18.30;57.17
64200;BME280;50516;52.272;5.136;2023-05-25T09:43:58;102948.16;;;18.39;57.31
64200;BME280;50516;52.272;5.136;2023-05-25T09:46:24;102949.47;;;18.05;58.16
64200;BME280;50516;52.272;5.136;2023-05-25T09:48:50;102950.41;;;17.79;58.85
64200;BME280;50516;52.272;5.136;2023-05-25T09:51:17;102949.59;;;17.83;59.70
64200;BME280;50516;52.272;5.136;2023-05-25T09:53:43;102961.63;;;17.94;58.92
64200;BME280;50516;52.272;5.136;2023-05-25T09:56:10;102972.91;;;17.34;59.70
64200;BME280;50516;52.272;5.136;2023-05-25T09:58:35;102956.59;;;16.78;61.50
64200;BME280;50516;52.272;5.136;2023-05-25T10:01:01;102961.03;;;17.07;61.45
64200;BME280;50516;52.272;5.136;2023-05-25T10:03:28;102960.09;;;17.28;59.58
64200;BME280;50516;52.272;5.136;2023-05-25T10:05:55;102966.38;;;17.56;58.43
64200;BME280;50516;52.272;5.136;2023-05-25T10:08:21;102964.84;;;17.81;58.08
64200;BME280;50516;52.272;5.136;2023-05-25T10:10:48;102961.50;;;17.74;57.47
64200;BME280;50516;52.272;5.136;2023-05-25T10:13:20;102964.16;;;17.96;56.99
64200;BME280;50516;52.272;5.136;2023-05-25T10:15:51;102966.78;;;18.33;55.48
64200;BME280;50516;52.272;5.136;2023-05-25T10:18:19;102965.19;;;18.63;54.83
64200;BME280;50516;52.272;5.136;2023-05-25T10:20:49;102963.28;;;19.10;53.92
64200;BME280;50516;52.272;5.136;2023-05-25T10:23:19;102966.91;;;19.26;52.93
64200;BME280;50516;52.272;5.136;2023-05-25T10:25:46;102973.03;;;19.23;52.70
64200;BME280;50516;52.272;5.136;2023-05-25T10:30:51;102973.31;;;19.01;52.15
64200;BME280;50516;52.272;5.136;2023-05-25T10:33:18;102966.59;;;18.76;53.61
64200;BME280;50516;52.272;5.136;2023-05-25T10:35:45;102958.78;;;18.57;54.68
64200;BME280;50516;52.272;5.136;2023-05-25T10:38:11;102975.50;;;18.78;54.79
64200;BME280;50516;52.272;5.136;2023-05-25T10:40:37;102959.41;;;19.11;53.80
64200;BME280;50516;52.272;5.136;2023-05-25T10:43:04;102977.75;;;19.48;53.08
64200;BME280;50516;52.272;5.136;2023-05-25T10:45:30;102974.97;;;19.38;52.26
64200;BME280;50516;52.272;5.136;2023-05-25T10:47:56;102978.53;;;18.71;52.57
64200;BME280;50516;52.272;5.136;2023-05-25T10:50:23;102992.97;;;18.48;53.14
64200;BME280;50516;52.272;5.136;2023-05-25T10:53:01;102985.50;;;18.69;53.58
64200;BME280;50516;52.272;5.136;2023-05-25T10:55:28;102993.03;;;18.73;53.26
64200;BME280;50516;52.272;5.136;2023-05-25T10:58:11;102986.34;;;18.69;53.04
64200;BME280;50516;52.272;5.136;2023-05-25T11:00:37;102985.94;;;18.24;53.86
64200;BME280;50516;52.272;5.136;2023-05-25T11:03:03;102979.34;;;18.41;53.31
64200;BME280;50516;52.272;5.136;2023-05-25T11:05:30;102990.22;;;18.58;52.78
64200;BME280;50516;52.272;5.136;2023-05-25T11:08:01;102985.13;;;18.34;52.68
64200;BME280;50516;52.272;5.136;2023-05-25T11:18:55;102988.22;;;18.43;53.58
64200;BME280;50516;52.272;5.136;2023-05-25T11:23:59;102989.13;;;18.79;52.53
64200;BME280;50516;52.272;5.136;2023-05-25T11:26:32;102971.94;;;19.03;51.92
64200;BME280;50516;52.272;5.136;2023-05-25T11:28:58;102985.28;;;18.86;52.78
64200;BME280;50516;52.272;5.136;2023-05-25T11:31:31;102983.81;;;18.52;52.80
64200;BME280;50516;52.272;5.136;2023-05-25T11:34:01;102978.00;;;18.74;52.49
64200;BME280;50516;52.272;5.136;2023-05-25T11:36:30;102986.13;;;18.86;50.84
64200;BME280;50516;52.272;5.136;2023-05-25T11:38:59;102975.75;;;18.61;50.31
64200;BME280;50516;52.272;5.136;2023-05-25T11:41:26;102981.63;;;18.75;50.36
64200;BME280;50516;52.272;5.136;2023-05-25T11:43:52;102977.16;;;18.79;50.88
64200;BME280;50516;52.272;5.136;2023-05-25T11:46:18;102970.53;;;19.21;50.18
64200;BME280;50516;52.272;5.136;2023-05-25T11:48:48;102973.25;;;19.67;49.77
64200;BME280;50516;52.272;5.136;2023-05-25T11:51:13;102974.13;;;19.58;49.71
64200;BME280;50516;52.272;5.136;2023-05-25T11:53:43;102974.13;;;19.58;49.01
64200;BME280;50516;52.272;5.136;2023-05-25T11:56:11;102967.19;;;19.24;49.61
64200;BME280;50516;52.272;5.136;2023-05-25T11:58:36;102964.97;;;19.11;49.90
64200;BME280;50516;52.272;5.136;2023-05-25T12:01:18;102944.59;;;19.46;49.94
64200;BME280;50516;52.272;5.136;2023-05-25T12:03:45;102962.09;;;19.73;49.97
64200;BME280;50516;52.272;5.136;2023-05-25T12:06:27;102956.91;;;19.09;50.02
64200;BME280;50516;52.272;5.136;2023-05-25T12:08:53;102953.25;;;19.34;50.10
64200;BME280;50516;52.272;5.136;2023-05-25T12:11:33;102957.38;;;19.78;49.25
64200;BME280;50516;52.272;5.136;2023-05-25T12:14:00;102949.56;;;19.65;49.78
64200;BME280;50516;52.272;5.136;2023-05-25T12:16:26;102941.69;;;19.98;50.33
64200;BME280;50516;52.272;5.136;2023-05-25T12:18:52;102947.94;;;19.48;50.15
64200;BME280;50516;52.272;5.136;2023-05-25T12:21:19;102939.00;;;19.51;51.09
64200;BME280;50516;52.272;5.136;2023-05-25T12:23:45;102950.13;;;19.62;49.69
64200;BME280;50516;52.272;5.136;2023-05-25T12:26:12;102949.28;;;19.66;50.08
64200;BME280;50516;52.272;5.136;2023-05-25T12:28:38;102955.69;;;19.62;49.10
64200;BME280;50516;52.272;5.136;2023-05-25T12:31:24;102951.66;;;20.14;46.66
64200;BME280;50516;52.272;5.136;2023-05-25T12:36:51;102952.88;;;19.82;46.29
64200;BME280;50516;52.272;5.136;2023-05-25T12:41:59;102944.53;;;19.72;46.80
64200;BME280;50516;52.272;5.136;2023-05-25T12:44:28;102951.59;;;19.23;47.45
64200;BME280;50516;52.272;5.136;2023-05-25T12:49:34;102946.59;;;19.10;47.81
64200;BME280;50516;52.272;5.136;2023-05-25T12:52:03;102942.97;;;18.94;47.36
64200;BME280;50516;52.272;5.136;2023-05-25T12:56:58;102944.81;;;18.27;49.43
64200;BME280;50516;52.272;5.136;2023-05-25T12:59:23;102938.44;;;18.57;49.13
64200;BME280;50516;52.272;5.136;2023-05-25T13:01:48;102946.78;;;18.52;49.75
64200;BME280;50516;52.272;5.136;2023-05-25T13:04:14;102944.31;;;18.60;48.80
64200;BME280;50516;52.272;5.136;2023-05-25T13:06:39;102955.69;;;18.49;49.40
64200;BME280;50516;52.272;5.136;2023-05-25T13:09:04;102933.38;;;18.23;49.86
64200;BME280;50516;52.272;5.136;2023-05-25T13:11:30;102929.47;;;18.14;50.18
64200;BME280;50516;52.272;5.136;2023-05-25T13:13:55;102941.41;;;18.14;49.38
64200;BME280;50516;52.272;5.136;2023-05-25T13:16:21;102925.13;;;18.54;50.18
64200;BME280;50516;52.272;5.136;2023-05-25T13:18:46;102927.38;;;19.03;48.94